Langueyu, Argentina
Current Conditions -  °F | °C
As of 3:00 PM on Thursday 23 Oct 2014 (Local Time) from SAZM Reporting Station
Light Rain Light Rain  
Wind Chill: 59°   Ceiling: 6000
Heat Index: 59°   Visibility: 6mi
Dew Point: 50°   Wind: 7mph
Humidity: 72%   Direction: 50°NE
Pressure: 30.06"   Gusts: NA
Location:  36.62°S, 58.53°W
Report Text: SAZM 231800Z 05006KT 9000 -RA BKN060 SCT200 15/10 Q1018
Loading
Personal Weather Stations






























Interactive Weather Map
Tropical Storm Tracking
New forecast layout! Learn more

10-Day Weather Forecast

Advertisements
Track Severe Weather on mobile